This is the latest recevied weather packets stored in our database for station/object PY5KT-13. If no packets are shown the sender has not sent any weather packets the latest 10 day(s).
| Time | Temp. | Humidity | Pressure | Rain* | Wind** | Luminosity | Snow |
|---|---|---|---|---|---|---|---|
| 1778013445 | 23.33° C | 66% | 1022.4 hPa | 0 mm | - | 4 W/m² | - |
| 1778013143 | 23.89° C | 65% | 1022.3 hPa | 0 mm | - | 8 W/m² | - |
| 1778012842 | 23.89° C | 63% | 1022.4 hPa | 0 mm | - | 10 W/m² | - |
| 1778012540 | 24.44° C | 61% | 1022.3 hPa | 0 mm | - | 13 W/m² | - |
| 1778012238 | 25° C | 60% | 1022.3 hPa | 0 mm | - | 16 W/m² | - |
| 1778011935 | 25° C | 59% | 1022.3 hPa | 0 mm | - | 29 W/m² | - |
| 1778011634 | 25.56° C | 57% | 1022.3 hPa | 0 mm | - | 32 W/m² | - |
| 1778011332 | 25.56° C | 57% | 1022.3 hPa | 0 mm | - | 34 W/m² | - |
| 1778011030 | 25.56° C | 56% | 1022.4 hPa | 0 mm | - | 37 W/m² | - |
| 1778010728 | 26.11° C | 53% | 1022.4 hPa | 0 mm | - | 45 W/m² | - |
| 1778010426 | 27.22° C | 52% | 1022.3 hPa | 0 mm | - | 70 W/m² | - |
| 1778010124 | 26.11° C | 54% | 1022.3 hPa | 0 mm | - | 155 W/m² | - |
| 1778009822 | 25.56° C | 54% | 1022.3 hPa | 0 mm | - | 141 W/m² | - |
| 1778009521 | 25.56° C | 54% | 1022.2 hPa | 0 mm | - | 83 W/m² | - |
| 1778009219 | 25.56° C | 53% | 1022.2 hPa | 0 mm | - | 75 W/m² | - |
| 1778008917 | 26.11° C | 53% | 1022.1 hPa | 0 mm | - | 48 W/m² | - |
| 1778008616 | 26.67° C | 51% | 1022.1 hPa | 0 mm | - | 49 W/m² | - |
| 1778008314 | 27.22° C | 49% | 1022.1 hPa | 0 mm | - | 48 W/m² | - |
| 1778008012 | 28.89° C | 45% | 1022.2 hPa | 0 mm | - | 47 W/m² | - |
| 1778007711 | 29.44° C | 44% | 1022.3 hPa | 0 mm | - | 52 W/m² | - |
| 1778007409 | 29.44° C | 43% | 1022.3 hPa | 0 mm | - | 92 W/m² | - |
| 1778007108 | 28.89° C | 44% | 1022.3 hPa | 0 mm | - | 178 W/m² | - |
| 1778006805 | 29.44° C | 43% | 1022.4 hPa | 0 mm | - | 248 W/m² | - |
| 1778006504 | 30° C | 42% | 1022.3 hPa | 0 mm | - | 327 W/m² | - |
| 1778006202 | 30° C | 42% | 1022.3 hPa | 0 mm | - | 358 W/m² | - |
* Rain latest hour (hover to see other rain measurements)
** Current wind speed in m/s (hover to see current wind gust speed)